St. Louis, MO

5:54 PM CDT on August 28, 2016 (GMT -0500)
APRSWXNET | | Change Station

Elev 615 ft 38.73 °N, 90.35 °W | Updated 46 minutes ago

Partly Cloudy
Partly Cloudy
90 °F
Feels Like 94 °F
N
1
Wind Variable Wind from ESE
Gusts 4.0 mph

Today
High -- | Low -- °F
--% Chance of Precip.
Yesterday
High -- | Low -- °F
Precip. -- in
Pressure 30.04 in
Visibility 10.0 miles
Clouds Few 5500 ft
Few 25000 ft
Heat Index 94 °F
Dew Point 68 °F
Humidity 48%
Rainfall in
Snow Depth Not available.
6:27 AM 7:36 PM
Waning Crescent, 13% visible
METAR KSTL 282251Z 15007KT 10SM FEW055 FEW250 34/19 A3008 RMK AO2 SLP172 T03390189
Pressure 30.04 in
Visibility 10.0 miles
Clouds Few 5500 ft
Few 25000 ft
Heat Index 94 °F
Dew Point 68 °F
Humidity 48%
Rainfall in
Snow Depth Not available.
6:27 AM 7:36 PM
Waning Crescent, 13% visible
METAR KSTL 282251Z 15007KT 10SM FEW055 FEW250 34/19 A3008 RMK AO2 SLP172 T03390189

10-Day Weather Forecast

Almanac

Astronomy

Aug. 28, 2016 Rise Set
Actual Time
Civil Twilight
Nautical Twilight
Astronomical Twilight
Moon
Length of Visible Light
Length of Day
Tomorrow will be .
, % of the Moon is Illuminated

Today's Extremes

State Highs State Lows

Community

WunderPhotos

Upload Photos

1,935,705 photos uploaded!

WunderBlog® & News

Nearby

Air Quality

  Air Quality AQ Index Pollutant
Not available.

Snow Depth

Station Depth Elevation

Earthquake Activity

City Distance Mag. Time & Date
Minimum magnitude displayed is 2.5.

Coastal Water Temperatures

Place Temperature

Stations

Nearby Weather Stations

Station Location Temp. Windchill Dew Point Humidity Wind Precip. Elev Updated Type
                   

Watches & Warnings

There are currently no watches in effect.